Time;durP1;ratioP1;P1;durP2;ratioP2;P2;SDS_P1;SDS_P2;PMS_P1;PMS_P2;Temp;Humidity;BMP_temperature;BMP_pressure;BME280_temperature;BME280_humidity;BME280_pressure;Samples;Min_cycle;Max_cycle;Signal;HPM_P1;HPM_P2
2022/11/04 00:01:19;;;;;;;12.88;9.32;;;;;;;;;;5070481;28;20044;-67
2022/11/04 00:03:45;;;;;;;12.13;7.97;;;;;;;;;;5070544;28;20132;-67
2022/11/04 00:06:12;;;;;;;9.30;8.02;;;;;;;;;;5069492;28;20079;-67
2022/11/04 00:08:38;;;;;;;8.65;6.85;;;;;;;;;;5070435;28;20716;-68
2022/11/04 00:13:48;;;;;;;6.20;5.53;;;;;;;;;;5070373;28;20052;-68
2022/11/04 00:19:00;;;;;;;6.20;3.50;;;;;;;;;;5070797;28;20076;-68
2022/11/04 00:29:42;;;;;;;7.97;3.67;;;;;;;;;;5071767;28;20041;-68
2022/11/04 00:34:53;;;;;;;3.05;2.75;;;;;;;;;;5074723;28;20040;-68
2022/11/04 00:37:19;;;;;;;3.65;1.63;;;;;;;;;;5074468;28;20060;-68
2022/11/04 00:39:45;;;;;;;3.20;1.85;;;;;;;;;;5073722;28;20056;-68
2022/11/04 00:42:11;;;;;;;1.60;1.20;;;;;;;;;;5074667;28;20087;-68
2022/11/04 00:44:37;;;;;;;2.72;1.40;;;;;;;;;;5074512;28;20044;-68
2022/11/04 00:47:03;;;;;;;1.63;1.52;;;;;;;;;;5074040;28;20051;-68
2022/11/04 00:49:29;;;;;;;2.03;1.38;;;;;;;;;;5074392;28;20036;-68
2022/11/04 00:51:55;;;;;;;1.20;0.80;;;;;;;;;;5074493;28;20149;-68
2022/11/04 00:54:21;;;;;;;0.52;0.40;;;;;;;;;;5073947;28;20448;-68
2022/11/04 00:56:47;;;;;;;2.25;0.50;;;;;;;;;;5074162;28;20042;-68
2022/11/04 00:59:13;;;;;;;0.75;0.40;;;;;;;;;;5074212;28;20036;-68
2022/11/04 01:01:40;;;;;;;0.43;0.40;;;;;;;;;;5073965;28;20040;-68
2022/11/04 01:04:06;;;;;;;0.32;0.30;;;;;;;;;;5074123;28;20036;-68
2022/11/04 01:06:32;;;;;;;1.90;0.30;;;;;;;;;;5073975;28;20032;-68
2022/11/04 01:09:03;;;;;;;2.25;0.40;;;;;;;;;;5073748;28;20045;-68
2022/11/04 01:11:30;;;;;;;2.80;0.47;;;;;;;;;;5074062;28;20055;-68
2022/11/04 01:13:56;;;;;;;0.82;0.50;;;;;;;;;;5073692;28;20460;-68
2022/11/04 01:16:22;;;;;;;1.02;0.40;;;;;;;;;;5073574;28;20044;-68
2022/11/04 01:18:48;;;;;;;2.90;0.75;;;;;;;;;;5073818;28;20040;-68
2022/11/04 01:21:15;;;;;;;2.78;0.80;;;;;;;;;;5073908;28;20546;-68
2022/11/04 01:23:42;;;;;;;2.78;0.50;;;;;;;;;;5073379;28;20448;-68
2022/11/04 01:26:09;;;;;;;2.58;0.75;;;;;;;;;;5073711;28;20037;-68
2022/11/04 01:28:35;;;;;;;0.98;0.30;;;;;;;;;;5073834;28;20046;-68
2022/11/04 01:31:08;;;;;;;2.38;0.50;;;;;;;;;;5073271;28;20032;-68
2022/11/04 01:33:34;;;;;;;1.75;0.57;;;;;;;;;;5073468;28;20045;-68
2022/11/04 01:36:00;;;;;;;1.35;0.52;;;;;;;;;;5073300;28;20036;-68
2022/11/04 01:38:26;;;;;;;1.60;0.70;;;;;;;;;;5072754;28;20155;-68
2022/11/04 01:40:52;;;;;;;3.97;0.80;;;;;;;;;;5072468;28;20048;-68
2022/11/04 01:43:20;;;;;;;3.95;0.60;;;;;;;;;;5072981;28;20044;-68
2022/11/04 01:45:55;;;;;;;2.30;0.52;;;;;;;;;;5072882;28;20045;-68
2022/11/04 01:48:26;;;;;;;3.80;0.70;;;;;;;;;;5073151;28;20040;-68
2022/11/04 01:50:53;;;;;;;3.42;0.50;;;;;;;;;;5073240;28;20075;-68
2022/11/04 01:53:28;;;;;;;3.15;0.60;;;;;;;;;;5072974;28;20044;-68
2022/11/04 01:55:58;;;;;;;4.20;0.60;;;;;;;;;;5073259;28;20462;-67
2022/11/04 01:58:29;;;;;;;2.97;0.43;;;;;;;;;;5073225;28;20044;-67
2022/11/04 02:00:55;;;;;;;1.75;0.47;;;;;;;;;;5072650;28;20097;-67
2022/11/04 02:03:29;;;;;;;1.08;0.40;;;;;;;;;;5072993;28;20048;-67
2022/11/04 02:05:56;;;;;;;1.55;0.28;;;;;;;;;;5072879;28;20071;-67
2022/11/04 02:08:22;;;;;;;1.73;0.30;;;;;;;;;;5072561;28;20044;-68
2022/11/04 02:10:51;;;;;;;2.47;0.40;;;;;;;;;;5072861;28;20040;-68
2022/11/04 02:13:18;;;;;;;2.20;0.40;;;;;;;;;;5072833;28;20165;-68
2022/11/04 02:15:55;;;;;;;2.08;0.30;;;;;;;;;;5072612;28;20072;-68
2022/11/04 02:18:47;;;;;;;3.22;0.60;;;;;;;;;;5072732;28;20047;-67
2022/11/04 02:21:25;;;;;;;2.60;0.40;;;;;;;;;;5072782;28;20120;-67
2022/11/04 02:24:06;;;;;;;4.22;0.60;;;;;;;;;;5072405;28;20045;-67
2022/11/04 02:26:35;;;;;;;2.70;0.45;;;;;;;;;;5072408;28;20041;-67
2022/11/04 02:29:04;;;;;;;3.20;0.45;;;;;;;;;;5072300;28;20098;-68
2022/11/04 02:31:33;;;;;;;2.55;0.40;;;;;;;;;;5072678;28;20045;-68
2022/11/04 02:34:22;;;;;;;4.03;0.55;;;;;;;;;;5072513;28;20032;-68
2022/11/04 02:37:08;;;;;;;1.08;0.40;;;;;;;;;;5071022;28;20053;-68
2022/11/04 02:39:34;;;;;;;4.63;0.65;;;;;;;;;;5072324;28;20055;-68
2022/11/04 02:42:04;;;;;;;3.17;0.40;;;;;;;;;;5072377;28;20116;-68
2022/11/04 02:44:35;;;;;;;3.95;0.40;;;;;;;;;;5071901;28;20036;-68
2022/11/04 02:47:05;;;;;;;1.70;0.30;;;;;;;;;;5072351;28;20051;-68
2022/11/04 02:49:40;;;;;;;1.65;0.35;;;;;;;;;;5104655;28;20165;-68
2022/11/04 02:52:25;;;;;;;3.30;0.65;;;;;;;;;;5071703;28;20139;-68
2022/11/04 02:54:56;;;;;;;0.88;0.70;;;;;;;;;;5072167;28;20041;-68
2022/11/04 02:57:25;;;;;;;1.65;0.70;;;;;;;;;;5072215;28;20131;-68
2022/11/04 02:59:55;;;;;;;2.78;0.93;;;;;;;;;;5071652;28;20549;-68
2022/11/04 03:02:41;;;;;;;6.18;1.40;;;;;;;;;;5072002;28;20040;-68
2022/11/04 03:05:08;;;;;;;4.22;1.50;;;;;;;;;;5104252;28;20056;-68
2022/11/04 03:07:36;;;;;;;2.65;1.10;;;;;;;;;;5071491;28;20094;-67
2022/11/04 03:10:07;;;;;;;4.07;1.58;;;;;;;;;;5070387;28;20123;-67
2022/11/04 03:12:39;;;;;;;2.22;1.23;;;;;;;;;;5071496;28;20032;-67
2022/11/04 03:15:09;;;;;;;3.22;1.00;;;;;;;;;;5071313;28;20136;-67
2022/11/04 03:17:44;;;;;;;4.45;1.05;;;;;;;;;;5071784;28;20075;-67
2022/11/04 03:20:14;;;;;;;2.05;1.23;;;;;;;;;;5071636;28;20082;-67
2022/11/04 03:22:40;;;;;;;2.70;1.10;;;;;;;;;;5071292;28;20036;-67
2022/11/04 03:25:07;;;;;;;6.80;1.52;;;;;;;;;;5071368;28;20084;-67
2022/11/04 03:27:48;;;;;;;3.72;1.15;;;;;;;;;;5071114;28;20040;-67
2022/11/04 03:30:16;;;;;;;3.00;1.40;;;;;;;;;;5070774;28;20036;-67
2022/11/04 03:32:57;;;;;;;10.05;1.60;;;;;;;;;;5071289;28;20040;-67
2022/11/04 03:35:24;;;;;;;10.98;1.40;;;;;;;;;;5071233;28;20110;-67
2022/11/04 03:37:50;;;;;;;2.25;0.80;;;;;;;;;;5070529;28;20041;-67
2022/11/04 03:40:17;;;;;;;0.95;0.40;;;;;;;;;;5070841;28;20379;-68
2022/11/04 03:42:44;;;;;;;1.73;0.50;;;;;;;;;;5069959;28;20081;-68
2022/11/04 03:45:11;;;;;;;1.05;0.22;;;;;;;;;;5070748;28;20041;-68
2022/11/04 03:47:37;;;;;;;2.05;0.30;;;;;;;;;;5071239;28;20044;-68
2022/11/04 03:50:03;;;;;;;2.05;0.30;;;;;;;;;;5070707;28;20040;-68
2022/11/04 03:52:29;;;;;;;1.95;0.35;;;;;;;;;;5070769;28;20040;-68
2022/11/04 03:54:55;;;;;;;1.95;0.43;;;;;;;;;;5071083;28;20387;-68
2022/11/04 03:57:27;;;;;;;1.70;0.40;;;;;;;;;;5071181;28;20037;-68
2022/11/04 04:00:00;;;;;;;1.88;0.38;;;;;;;;;;5070560;28;20037;-68
2022/11/04 04:02:33;;;;;;;0.70;0.30;;;;;;;;;;5070787;28;20043;-68
2022/11/04 04:05:00;;;;;;;5.35;1.15;;;;;;;;;;5070332;28;20040;-68
2022/11/04 04:07:31;;;;;;;3.60;0.40;;;;;;;;;;5070223;28;20055;-68
2022/11/04 04:13:04;;;;;;;2.33;0.50;;;;;;;;;;5070522;28;20586;-68
2022/11/04 04:15:34;;;;;;;2.50;0.80;;;;;;;;;;5070895;28;20714;-68
2022/11/04 04:18:04;;;;;;;1.95;0.65;;;;;;;;;;5070910;28;20456;-68
2022/11/04 04:20:32;;;;;;;7.35;0.88;;;;;;;;;;5070279;28;20135;-68
2022/11/04 04:23:01;;;;;;;2.78;0.75;;;;;;;;;;5070867;28;20056;-68
2022/11/04 04:28:14;;;;;;;1.45;0.68;;;;;;;;;;5070067;28;20049;-68
2022/11/04 04:30:41;;;;;;;3.63;0.70;;;;;;;;;;5070653;28;20036;-68
2022/11/04 04:33:15;;;;;;;1.25;0.80;;;;;;;;;;5070595;28;20056;-68
2022/11/04 04:35:48;;;;;;;4.88;0.80;;;;;;;;;;5102905;28;20106;-68
2022/11/04 04:46:59;;;;;;;0.88;0.57;;;;;;;;;;5070616;28;20402;-68
2022/11/04 04:49:33;;;;;;;1.52;0.50;;;;;;;;;;5070310;28;20051;-68
2022/11/04 04:52:00;;;;;;;1.88;0.50;;;;;;;;;;5070444;28;20480;-68
2022/11/04 04:54:26;;;;;;;3.50;0.68;;;;;;;;;;5070491;28;20127;-68
2022/11/04 04:56:52;;;;;;;1.23;0.50;;;;;;;;;;5070372;28;20119;-68
2022/11/04 04:59:18;;;;;;;2.90;0.43;;;;;;;;;;5069996;28;20179;-68
2022/11/04 05:01:44;;;;;;;3.58;0.57;;;;;;;;;;5070331;28;20529;-68
2022/11/04 05:04:10;;;;;;;2.03;0.70;;;;;;;;;;5070197;28;20045;-68
2022/11/04 05:06:36;;;;;;;3.45;0.60;;;;;;;;;;5069621;28;20041;-68
2022/11/04 05:09:02;;;;;;;2.33;0.60;;;;;;;;;;5070157;28;20489;-68
2022/11/04 05:11:29;;;;;;;3.58;0.60;;;;;;;;;;5070393;28;20467;-68
2022/11/04 05:13:55;;;;;;;2.17;0.63;;;;;;;;;;5069787;28;20041;-68
2022/11/04 05:16:21;;;;;;;0.77;0.30;;;;;;;;;;5072419;28;20066;-68
2022/11/04 05:18:47;;;;;;;3.15;0.60;;;;;;;;;;5073650;28;20076;-68
2022/11/04 05:21:14;;;;;;;1.88;0.70;;;;;;;;;;5073412;28;20037;-68
2022/11/04 05:23:40;;;;;;;3.50;0.88;;;;;;;;;;5073841;28;20041;-68
2022/11/04 05:26:06;;;;;;;4.45;0.70;;;;;;;;;;5073580;28;20458;-68
2022/11/04 05:28:32;;;;;;;1.17;0.40;;;;;;;;;;5073337;28;20040;-68
2022/11/04 05:31:02;;;;;;;3.30;0.60;;;;;;;;;;5073463;28;20071;-68
2022/11/04 05:33:28;;;;;;;3.90;0.82;;;;;;;;;;5073468;28;20047;-68
2022/11/04 05:35:54;;;;;;;2.50;0.50;;;;;;;;;;5073364;28;20476;-68
2022/11/04 05:38:20;;;;;;;2.00;0.50;;;;;;;;;;5073164;28;20419;-68
2022/11/04 05:40:46;;;;;;;3.03;0.60;;;;;;;;;;5073298;28;20041;-68
2022/11/04 05:43:12;;;;;;;7.70;2.05;;;;;;;;;;5072869;28;20101;-68
2022/11/04 05:45:38;;;;;;;4.53;1.23;;;;;;;;;;5073331;28;20047;-68
2022/11/04 05:48:05;;;;;;;1.95;0.77;;;;;;;;;;5073037;28;20039;-68
2022/11/04 05:50:32;;;;;;;4.35;1.40;;;;;;;;;;5073042;28;20480;-68
2022/11/04 05:52:59;;;;;;;2.35;0.95;;;;;;;;;;5073331;28;20074;-68
2022/11/04 05:55:25;;;;;;;0.88;0.70;;;;;;;;;;5073450;28;20039;-68
2022/11/04 05:57:52;;;;;;;1.10;0.80;;;;;;;;;;5073085;28;20371;-68
2022/11/04 06:00:18;;;;;;;3.47;1.60;;;;;;;;;;5072826;28;20405;-68
2022/11/04 06:02:44;;;;;;;2.78;0.82;;;;;;;;;;5073194;28;20082;-68
2022/11/04 06:05:10;;;;;;;2.30;0.77;;;;;;;;;;5072564;28;20509;-68
2022/11/04 06:07:37;;;;;;;6.90;0.77;;;;;;;;;;5072887;28;20047;-68
2022/11/04 06:10:03;;;;;;;0.98;0.40;;;;;;;;;;5072847;28;20041;-68
2022/11/04 06:12:29;;;;;;;1.20;0.60;;;;;;;;;;5072674;28;20041;-68
2022/11/04 06:14:55;;;;;;;3.28;0.50;;;;;;;;;;5072792;28;20044;-68
2022/11/04 06:17:21;;;;;;;1.35;0.60;;;;;;;;;;5072798;28;20072;-68
2022/11/04 06:19:48;;;;;;;2.47;0.80;;;;;;;;;;5071142;28;20048;-68
2022/11/04 06:22:15;;;;;;;3.17;0.80;;;;;;;;;;5072880;28;20044;-68
2022/11/04 06:24:41;;;;;;;4.47;0.60;;;;;;;;;;5072615;28;20450;-68
2022/11/04 06:27:08;;;;;;;2.20;0.60;;;;;;;;;;5071432;28;20083;-68
2022/11/04 06:29:38;;;;;;;1.83;0.50;;;;;;;;;;5072647;28;20068;-68
2022/11/04 06:32:05;;;;;;;3.67;0.80;;;;;;;;;;5072497;28;20071;-68
2022/11/04 06:34:30;;;;;;;2.60;0.70;;;;;;;;;;5072082;28;20041;-68
2022/11/04 06:36:56;;;;;;;1.02;0.60;;;;;;;;;;5072366;28;20117;-68
2022/11/04 06:39:22;;;;;;;1.67;0.60;;;;;;;;;;5072325;28;20041;-68
2022/11/04 06:41:49;;;;;;;2.83;0.40;;;;;;;;;;5071819;28;20072;-68
2022/11/04 06:44:15;;;;;;;1.75;0.50;;;;;;;;;;5072346;28;20632;-68
2022/11/04 06:46:42;;;;;;;1.55;0.70;;;;;;;;;;5072299;28;20087;-68
2022/11/04 06:49:16;;;;;;;1.95;0.60;;;;;;;;;;5071834;28;20044;-68
2022/11/04 06:51:42;;;;;;;5.95;0.82;;;;;;;;;;5072403;28;20055;-68
2022/11/04 06:54:09;;;;;;;4.75;1.00;;;;;;;;;;5072069;28;20391;-68
2022/11/04 06:56:35;;;;;;;3.97;0.60;;;;;;;;;;5071756;28;20071;-68
2022/11/04 06:59:01;;;;;;;4.85;0.98;;;;;;;;;;5072029;28;20064;-68
2022/11/04 07:01:29;;;;;;;1.73;0.80;;;;;;;;;;5071938;28;20040;-68
2022/11/04 07:03:56;;;;;;;4.03;1.20;;;;;;;;;;5071341;28;20044;-68
2022/11/04 07:06:22;;;;;;;1.45;1.05;;;;;;;;;;5069926;28;20052;-68
2022/11/04 07:08:49;;;;;;;1.63;1.30;;;;;;;;;;5071090;28;20039;-68
2022/11/04 07:11:16;;;;;;;3.63;1.25;;;;;;;;;;5070690;28;20649;-68
2022/11/04 07:13:42;;;;;;;3.40;1.35;;;;;;;;;;5070972;28;20620;-68
2022/11/04 07:16:08;;;;;;;2.25;1.20;;;;;;;;;;5071576;28;20040;-68
2022/11/04 07:18:34;;;;;;;4.53;1.60;;;;;;;;;;5070076;28;20068;-67
2022/11/04 07:21:00;;;;;;;1.45;1.10;;;;;;;;;;5071273;28;20847;-69
2022/11/04 07:23:27;;;;;;;2.85;1.08;;;;;;;;;;5071124;28;20043;-68
2022/11/04 07:25:53;;;;;;;1.58;0.90;;;;;;;;;;5068878;28;20040;-68
2022/11/04 07:28:19;;;;;;;2.55;1.00;;;;;;;;;;5071201;28;20050;-68
2022/11/04 07:30:45;;;;;;;3.13;1.00;;;;;;;;;;5070716;28;20040;-68
2022/11/04 07:33:11;;;;;;;2.42;0.90;;;;;;;;;;5070556;28;20059;-68
2022/11/04 07:35:38;;;;;;;2.60;1.00;;;;;;;;;;5062280;28;20033;-68
2022/11/04 07:38:04;;;;;;;2.63;1.52;;;;;;;;;;5064994;28;20057;-68
2022/11/04 07:40:33;;;;;;;9.73;2.85;;;;;;;;;;5069423;28;20093;-67
2022/11/04 07:42:59;;;;;;;4.95;3.08;;;;;;;;;;5067670;28;20064;-67
2022/11/04 07:45:25;;;;;;;4.28;1.50;;;;;;;;;;5067956;28;20041;-66
2022/11/04 07:47:51;;;;;;;3.55;2.15;;;;;;;;;;5068585;28;20047;-67
2022/11/04 07:50:18;;;;;;;4.32;1.40;;;;;;;;;;5069667;28;20040;-67
2022/11/04 07:52:44;;;;;;;3.97;1.50;;;;;;;;;;5070117;28;20720;-66
2022/11/04 07:55:12;;;;;;;3.67;1.60;;;;;;;;;;5068442;28;20048;-66
2022/11/04 07:57:38;;;;;;;2.28;1.30;;;;;;;;;;5069632;28;20380;-65
2022/11/04 08:00:05;;;;;;;5.22;1.52;;;;;;;;;;5069976;28;20041;-65
2022/11/04 08:02:31;;;;;;;2.42;1.25;;;;;;;;;;5070097;28;20044;-66
2022/11/04 08:04:57;;;;;;;2.35;1.33;;;;;;;;;;5070263;28;20070;-67
2022/11/04 08:07:23;;;;;;;3.50;1.40;;;;;;;;;;5069136;28;20090;-66
2022/11/04 08:09:49;;;;;;;4.75;1.80;;;;;;;;;;5069054;28;20040;-66
2022/11/04 08:12:15;;;;;;;1.65;1.30;;;;;;;;;;5070289;28;20459;-66
2022/11/04 08:14:41;;;;;;;2.38;1.25;;;;;;;;;;5069822;28;20360;-66
2022/11/04 08:17:07;;;;;;;2.67;1.30;;;;;;;;;;5056527;28;20375;-65
2022/11/04 08:19:33;;;;;;;2.30;1.40;;;;;;;;;;5068996;28;20426;-66
2022/11/04 08:21:59;;;;;;;3.13;1.50;;;;;;;;;;5067774;28;20048;-67
2022/11/04 08:24:25;;;;;;;3.33;1.58;;;;;;;;;;5066562;28;20181;-64
2022/11/04 08:26:52;;;;;;;6.15;1.90;;;;;;;;;;5066619;28;20040;-64
2022/11/04 08:29:18;;;;;;;5.93;1.85;;;;;;;;;;5068352;28;20044;-64
2022/11/04 08:31:44;;;;;;;4.63;1.80;;;;;;;;;;5065844;28;20684;-65
2022/11/04 08:34:10;;;;;;;1.98;1.35;;;;;;;;;;5067094;28;20047;-64
2022/11/04 08:36:37;;;;;;;4.18;1.77;;;;;;;;;;5068721;28;20095;-65
2022/11/04 08:39:04;;;;;;;1.75;1.33;;;;;;;;;;5069065;28;20041;-64
2022/11/04 08:41:30;;;;;;;2.53;1.40;;;;;;;;;;5068053;28;20853;-64
2022/11/04 08:43:59;;;;;;;4.75;1.27;;;;;;;;;;5068783;28;20370;-65
2022/11/04 08:46:26;;;;;;;4.90;1.35;;;;;;;;;;5068706;28;20411;-65
2022/11/04 08:48:52;;;;;;;4.18;1.30;;;;;;;;;;5067007;28;20040;-66
2022/11/04 08:51:22;;;;;;;3.88;1.45;;;;;;;;;;5070929;28;20036;-65
2022/11/04 08:53:48;;;;;;;7.22;1.48;;;;;;;;;;5071785;28;20041;-66
2022/11/04 08:56:24;;;;;;;5.53;1.85;;;;;;;;;;5072574;28;20161;-66
2022/11/04 08:58:50;;;;;;;2.83;1.55;;;;;;;;;;5071138;28;20044;-67
2022/11/04 09:01:17;;;;;;;6.55;1.95;;;;;;;;;;5068704;28;20032;-67
2022/11/04 09:03:43;;;;;;;4.43;1.75;;;;;;;;;;5071800;28;20132;-66
2022/11/04 09:06:11;;;;;;;5.47;2.45;;;;;;;;;;5071692;28;20040;-66
2022/11/04 09:08:38;;;;;;;5.43;2.72;;;;;;;;;;5071832;28;20051;-67
2022/11/04 09:11:08;;;;;;;9.50;3.30;;;;;;;;;;5071884;28;20066;-68
2022/11/04 09:13:35;;;;;;;6.90;3.05;;;;;;;;;;5071370;28;20055;-67
2022/11/04 09:16:01;;;;;;;7.00;3.55;;;;;;;;;;5069607;28;20124;-68
2022/11/04 09:18:27;;;;;;;7.40;5.72;;;;;;;;;;5072252;28;20033;-68
2022/11/04 09:20:53;;;;;;;9.05;5.75;;;;;;;;;;5070787;28;20040;-67
2022/11/04 09:23:19;;;;;;;11.23;7.68;;;;;;;;;;5071507;28;20052;-68
2022/11/04 09:25:45;;;;;;;16.20;9.20;;;;;;;;;;5069337;28;20083;-67
2022/11/04 09:28:11;;;;;;;13.70;10.63;;;;;;;;;;5072109;28;20459;-67
2022/11/04 09:30:38;;;;;;;17.73;10.70;;;;;;;;;;5071943;28;20124;-67
2022/11/04 09:33:04;;;;;;;14.68;10.52;;;;;;;;;;5070947;28;20058;-66
2022/11/04 09:35:30;;;;;;;19.80;11.38;;;;;;;;;;5070935;28;20048;-67
2022/11/04 09:37:55;;;;;;;14.43;11.00;;;;;;;;;;5070346;28;20481;-68
2022/11/04 09:40:23;;;;;;;15.45;9.68;;;;;;;;;;5069449;28;20083;-67
2022/11/04 09:42:52;;;;;;;14.98;9.93;;;;;;;;;;5071611;28;20453;-67
2022/11/04 09:45:21;;;;;;;16.42;10.55;;;;;;;;;;5070975;28;20040;-67
2022/11/04 09:47:49;;;;;;;16.90;10.85;;;;;;;;;;5071071;28;20706;-68
2022/11/04 09:50:20;;;;;;;16.45;9.48;;;;;;;;;;5071551;28;20071;-66
2022/11/04 09:52:50;;;;;;;15.32;9.70;;;;;;;;;;5071594;28;20040;-66
2022/11/04 09:55:20;;;;;;;12.70;8.77;;;;;;;;;;5071625;28;20036;-67
2022/11/04 09:57:57;;;;;;;13.88;9.55;;;;;;;;;;5071483;28;20049;-69
2022/11/04 10:00:23;;;;;;;18.38;10.10;;;;;;;;;;5072216;28;20036;-69
2022/11/04 10:03:25;;;;;;;15.38;9.93;;;;;;;;;;5071185;28;20356;-68
2022/11/04 10:06:02;;;;;;;13.65;10.10;;;;;;;;;;4990801;28;20043;-68
2022/11/04 10:08:39;;;;;;;17.02;10.38;;;;;;;;;;5048528;28;20864;-66
2022/11/04 10:11:15;;;;;;;17.60;10.52;;;;;;;;;;5070103;28;20036;-69
2022/11/04 10:13:44;;;;;;;17.05;10.35;;;;;;;;;;5070776;28;20049;-68
2022/11/04 10:16:26;;;;;;;18.10;9.02;;;;;;;;;;5071584;28;20039;-67
2022/11/04 10:18:58;;;;;;;13.77;8.80;;;;;;;;;;5070273;28;20066;-67
2022/11/04 10:21:30;;;;;;;19.20;9.95;;;;;;;;;;5071071;28;20139;-66
2022/11/04 10:24:15;;;;;;;17.80;11.35;;;;;;;;;;5069866;28;20041;-66
2022/11/04 10:26:44;;;;;;;24.27;11.65;;;;;;;;;;5068768;28;20062;-68
2022/11/04 10:29:15;;;;;;;15.73;9.68;;;;;;;;;;5071298;28;20098;-67
2022/11/04 10:31:43;;;;;;;17.10;9.60;;;;;;;;;;5071300;28;20044;-66
2022/11/04 10:34:15;;;;;;;20.08;9.98;;;;;;;;;;5072537;28;20486;-65
2022/11/04 10:36:41;;;;;;;17.23;9.48;;;;;;;;;;5072019;28;20044;-65
2022/11/04 10:39:17;;;;;;;17.65;9.05;;;;;;;;;;5070181;28;20537;-65
2022/11/04 10:41:44;;;;;;;16.92;10.13;;;;;;;;;;5068654;28;20029;-65
2022/11/04 10:44:15;;;;;;;20.25;10.68;;;;;;;;;;5071305;28;20479;-65
2022/11/04 10:46:44;;;;;;;17.30;10.43;;;;;;;;;;5071276;28;20134;-65
2022/11/04 10:49:10;;;;;;;18.70;10.75;;;;;;;;;;5067526;28;20029;-67
2022/11/04 10:51:36;;;;;;;15.95;10.55;;;;;;;;;;5061106;28;20418;-68
2022/11/04 10:54:05;;;;;;;13.68;9.15;;;;;;;;;;5068391;28;20040;-66
2022/11/04 10:56:35;;;;;;;18.17;9.68;;;;;;;;;;5069161;28;20812;-69
2022/11/04 10:59:08;;;;;;;12.88;8.18;;;;;;;;;;5071506;28;20425;-68
2022/11/04 11:01:34;;;;;;;12.38;8.23;;;;;;;;;;5069794;28;20041;-68
2022/11/04 11:04:05;;;;;;;12.70;7.57;;;;;;;;;;5071013;28;20048;-68
2022/11/04 11:06:32;;;;;;;10.65;6.70;;;;;;;;;;5069649;28;20123;-68
2022/11/04 11:09:18;;;;;;;11.48;7.30;;;;;;;;;;5070786;28;20380;-68
2022/11/04 11:11:47;;;;;;;11.88;6.38;;;;;;;;;;5069896;28;20040;-66
2022/11/04 11:14:16;;;;;;;10.30;6.60;;;;;;;;;;5065347;28;20044;-66
2022/11/04 11:16:44;;;;;;;11.40;6.55;;;;;;;;;;5070298;28;20041;-67
2022/11/04 11:19:13;;;;;;;13.13;5.80;;;;;;;;;;5070405;28;20048;-65
2022/11/04 11:21:47;;;;;;;11.27;5.85;;;;;;;;;;5069893;28;20085;-65
2022/11/04 11:24:25;;;;;;;8.13;6.28;;;;;;;;;;5070839;28;20055;-68
2022/11/04 11:26:59;;;;;;;7.32;5.45;;;;;;;;;;5070525;28;20655;-67
2022/11/04 11:29:26;;;;;;;9.07;5.85;;;;;;;;;;5068420;28;20056;-67
2022/11/04 11:31:53;;;;;;;11.30;5.68;;;;;;;;;;5069784;28;20044;-68
2022/11/04 11:34:31;;;;;;;9.30;5.50;;;;;;;;;;5070790;28;20525;-65
2022/11/04 11:36:57;;;;;;;11.32;5.60;;;;;;;;;;5069592;28;20048;-65
2022/11/04 11:39:26;;;;;;;13.57;4.97;;;;;;;;;;5071036;28;20059;-65
2022/11/04 11:41:55;;;;;;;10.15;4.10;;;;;;;;;;5070216;28;20844;-66
2022/11/04 11:44:37;;;;;;;15.10;4.18;;;;;;;;;;5069867;28;20458;-66
2022/11/04 11:47:04;;;;;;;9.18;4.57;;;;;;;;;;5070205;28;20110;-66
2022/11/04 11:49:33;;;;;;;7.82;4.97;;;;;;;;;;5070197;28;20132;-66
2022/11/04 11:52:18;;;;;;;8.20;5.35;;;;;;;;;;5069799;28;20453;-66
2022/11/04 11:54:46;;;;;;;11.13;4.63;;;;;;;;;;5070709;28;20692;-66
2022/11/04 11:57:32;;;;;;;9.80;4.22;;;;;;;;;;5070109;28;20174;-66
2022/11/04 12:00:08;;;;;;;6.65;2.90;;;;;;;;;;5069447;28;20499;-66
2022/11/04 12:02:34;;;;;;;8.77;3.58;;;;;;;;;;5069906;28;20048;-66
2022/11/04 12:05:01;;;;;;;7.13;2.72;;;;;;;;;;5070950;28;20067;-66
2022/11/04 12:07:27;;;;;;;11.20;2.75;;;;;;;;;;5070405;28;20060;-66
2022/11/04 12:09:58;;;;;;;8.60;3.00;;;;;;;;;;5070559;28;20387;-66
2022/11/04 12:12:36;;;;;;;4.50;3.08;;;;;;;;;;5070601;28;20090;-66
2022/11/04 12:15:28;;;;;;;1.80;0.60;;;;;;;;;;5070469;28;20055;-66
2022/11/04 12:18:20;;;;;;;2.97;0.50;;;;;;;;;;5069500;28;20521;-66
2022/11/04 12:21:05;;;;;;;2.53;0.47;;;;;;;;;;5045930;28;20044;-66
2022/11/04 12:23:39;;;;;;;6.10;0.98;;;;;;;;;;5069665;28;20059;-66
2022/11/04 12:26:24;;;;;;;6.43;1.20;;;;;;;;;;5066554;28;20040;-65
2022/11/04 12:29:09;;;;;;;5.10;0.95;;;;;;;;;;5068330;28;20367;-67
2022/11/04 12:31:44;;;;;;;4.43;0.70;;;;;;;;;;5068860;28;20044;-65
2022/11/04 12:34:24;;;;;;;4.00;0.70;;;;;;;;;;5069981;28;20055;-65
2022/11/04 12:37:09;;;;;;;3.38;0.93;;;;;;;;;;5069837;28;20125;-65
2022/11/04 12:39:50;;;;;;;5.20;0.90;;;;;;;;;;5069825;28;20041;-66
2022/11/04 12:42:19;;;;;;;3.58;0.90;;;;;;;;;;5069241;28;20048;-66
2022/11/04 12:44:50;;;;;;;2.15;0.68;;;;;;;;;;5069562;28;20090;-66
2022/11/04 12:47:20;;;;;;;3.38;0.88;;;;;;;;;;5068887;28;20044;-66
2022/11/04 12:49:46;;;;;;;3.50;0.80;;;;;;;;;;5069878;28;20533;-65
2022/11/04 12:52:31;;;;;;;2.38;0.70;;;;;;;;;;5069408;28;20037;-64
2022/11/04 12:54:57;;;;;;;6.10;0.88;;;;;;;;;;5070084;28;20048;-65
2022/11/04 12:57:23;;;;;;;5.07;1.33;;;;;;;;;;5068420;28;20041;-66
2022/11/04 12:59:58;;;;;;;3.83;1.00;;;;;;;;;;5066125;28;20543;-66
2022/11/04 13:02:24;;;;;;;4.90;0.90;;;;;;;;;;5068828;28;20064;-66
2022/11/04 13:05:00;;;;;;;4.20;1.10;;;;;;;;;;5069746;28;20748;-67
2022/11/04 13:07:33;;;;;;;6.15;1.35;;;;;;;;;;5068832;28;20448;-66
2022/11/04 13:10:04;;;;;;;4.90;1.50;;;;;;;;;;5069442;28;20045;-67
2022/11/04 13:12:32;;;;;;;3.50;1.23;;;;;;;;;;5069026;28;20048;-67
2022/11/04 13:15:00;;;;;;;3.22;1.05;;;;;;;;;;5069151;28;20049;-66
2022/11/04 13:17:29;;;;;;;3.05;0.98;;;;;;;;;;5069259;28;20116;-66
2022/11/04 13:20:04;;;;;;;3.40;1.00;;;;;;;;;;5069864;28;20713;-66
2022/11/04 13:22:32;;;;;;;4.82;0.90;;;;;;;;;;5069113;28;20067;-66
2022/11/04 13:25:02;;;;;;;3.85;0.80;;;;;;;;;;5068060;28;20356;-66
2022/11/04 13:27:32;;;;;;;2.67;0.93;;;;;;;;;;5061888;28;20124;-66
2022/11/04 13:30:15;;;;;;;2.63;0.80;;;;;;;;;;5068616;28;20045;-66
2022/11/04 13:32:48;;;;;;;4.78;1.08;;;;;;;;;;5068846;28;20165;-65
2022/11/04 13:35:21;;;;;;;2.88;0.82;;;;;;;;;;5068948;28;20044;-65
2022/11/04 13:37:55;;;;;;;6.03;1.00;;;;;;;;;;5069911;28;20060;-66
2022/11/04 13:40:27;;;;;;;2.67;0.95;;;;;;;;;;5069159;28;20049;-65
2022/11/04 13:43:36;;;;;;;3.47;0.93;;;;;;;;;;5072392;28;20042;-64
2022/11/04 13:45:48;;;;;;;3.03;0.90;;;;;;;;;;5072596;28;20041;-63
2022/11/04 13:48:18;;;;;;;4.03;1.60;;;;;;;;;;5072299;28;20426;-64
2022/11/04 13:50:44;;;;;;;3.47;1.60;;;;;;;;;;5081346;28;20040;-64
2022/11/04 13:53:10;;;;;;;8.43;1.80;;;;;;;;;;5070260;28;20041;-65
2022/11/04 13:55:48;;;;;;;5.05;2.03;;;;;;;;;;5072812;28;20068;-64
2022/11/04 13:58:20;;;;;;;9.35;2.35;;;;;;;;;;5073402;28;20036;-65
2022/11/04 14:01:06;;;;;;;5.80;2.20;;;;;;;;;;5073517;28;20139;-65
2022/11/04 14:03:39;;;;;;;6.90;1.83;;;;;;;;;;5072923;28;20102;-66
2022/11/04 14:06:06;;;;;;;6.80;1.70;;;;;;;;;;5073150;28;20147;-64
2022/11/04 14:08:33;;;;;;;4.40;1.60;;;;;;;;;;5073151;28;20637;-64
2022/11/04 14:11:01;;;;;;;5.60;1.30;;;;;;;;;;5073301;28;20040;-64
2022/11/04 14:13:30;;;;;;;5.85;1.38;;;;;;;;;;5071573;28;20037;-63
2022/11/04 14:16:09;;;;;;;5.10;1.33;;;;;;;;;;5073220;28;20044;-63
2022/11/04 14:18:36;;;;;;;5.70;1.02;;;;;;;;;;5073280;28;20091;-64
2022/11/04 14:21:05;;;;;;;3.15;1.10;;;;;;;;;;5072363;28;20075;-63
2022/11/04 14:23:32;;;;;;;5.38;1.00;;;;;;;;;;5072506;28;20074;-63
2022/11/04 14:26:17;;;;;;;8.85;1.10;;;;;;;;;;5073099;28;20047;-63
2022/11/04 14:28:44;;;;;;;2.70;1.00;;;;;;;;;;5072758;28;20113;-64
2022/11/04 14:31:12;;;;;;;6.25;1.02;;;;;;;;;;5072837;28;20064;-64
2022/11/04 14:33:39;;;;;;;5.47;1.10;;;;;;;;;;5072908;28;20083;-64
2022/11/04 14:36:20;;;;;;;7.68;1.38;;;;;;;;;;5072372;28;20094;-62
2022/11/04 14:38:53;;;;;;;9.02;1.33;;;;;;;;;;5072666;28;20057;-62
2022/11/04 14:41:31;;;;;;;5.72;1.42;;;;;;;;;;5072875;28;20055;-62
2022/11/04 14:44:02;;;;;;;4.50;1.40;;;;;;;;;;5072363;28;20536;-63
2022/11/04 14:46:30;;;;;;;7.63;1.17;;;;;;;;;;5072947;28;20071;-63
2022/11/04 14:48:59;;;;;;;9.70;1.33;;;;;;;;;;5072011;28;20490;-63
2022/11/04 14:51:26;;;;;;;5.32;1.20;;;;;;;;;;5072432;28;20051;-64
2022/11/04 14:53:55;;;;;;;4.95;1.50;;;;;;;;;;5072017;28;20048;-64
2022/11/04 14:56:22;;;;;;;7.43;1.40;;;;;;;;;;5071793;28;20049;-63
2022/11/04 14:58:55;;;;;;;3.47;1.45;;;;;;;;;;5072379;28;20032;-64
2022/11/04 15:01:22;;;;;;;3.70;1.05;;;;;;;;;;5072329;28;20044;-64
2022/11/04 15:03:48;;;;;;;7.45;1.20;;;;;;;;;;5071814;28;20036;-63
2022/11/04 15:06:22;;;;;;;6.07;1.13;;;;;;;;;;5072332;28;20046;-64
2022/11/04 15:08:48;;;;;;;4.88;1.10;;;;;;;;;;5072138;28;20040;-63
2022/11/04 15:11:16;;;;;;;5.82;1.27;;;;;;;;;;5071571;28;20044;-63
2022/11/04 15:13:49;;;;;;;3.92;1.02;;;;;;;;;;5070356;28;20098;-67
2022/11/04 15:16:20;;;;;;;6.88;1.20;;;;;;;;;;5070758;28;20055;-67
2022/11/04 15:18:46;;;;;;;4.10;1.50;;;;;;;;;;5071806;28;20045;-68
2022/11/04 15:21:13;;;;;;;4.03;1.10;;;;;;;;;;5071682;28;20038;-67
2022/11/04 15:23:43;;;;;;;6.22;1.80;;;;;;;;;;5071875;28;20062;-67
2022/11/04 15:26:28;;;;;;;5.38;1.30;;;;;;;;;;5071608;28;20044;-66